createdAt,value
2022-11-16T00:00:45.255Z,26.15
2022-11-16T00:03:48.395Z,26.17
2022-11-16T00:06:51.294Z,24.70
2022-11-16T00:09:54.132Z,25.53
2022-11-16T00:12:57.019Z,25.08
2022-11-16T00:16:00.179Z,24.70
2022-11-16T00:19:05.380Z,25.62
2022-11-16T00:22:08.169Z,25.13
2022-11-16T00:25:11.032Z,25.17
2022-11-16T00:28:14.088Z,24.73
2022-11-16T00:31:16.847Z,25.52
2022-11-16T00:34:20.252Z,25.95
2022-11-16T00:37:23.094Z,25.77
2022-11-16T00:40:25.917Z,27.53
2022-11-16T00:43:28.958Z,24.70
2022-11-16T00:46:31.806Z,26.95
2022-11-16T00:49:34.806Z,26.27
2022-11-16T00:52:37.602Z,26.50
2022-11-16T00:55:40.576Z,26.17
2022-11-16T00:58:43.597Z,28.27
2022-11-16T01:01:46.504Z,27.27
2022-11-16T01:04:49.506Z,28.15
2022-11-16T01:07:52.863Z,27.40
2022-11-16T01:10:55.709Z,28.90
2022-11-16T01:13:58.484Z,27.70
2022-11-16T01:17:01.408Z,29.15
2022-11-16T01:20:06.373Z,28.73
2022-11-16T01:23:09.203Z,28.33
2022-11-16T01:26:14.181Z,27.67
2022-11-16T01:29:17.274Z,27.40
2022-11-16T01:32:20.100Z,27.62
2022-11-16T01:35:23.373Z,28.05
2022-11-16T01:38:29.783Z,28.23
2022-11-16T01:41:33.258Z,27.90
2022-11-16T01:44:36.040Z,28.55
2022-11-16T01:47:38.952Z,28.20
2022-11-16T01:50:42.264Z,28.10
2022-11-16T01:53:45.404Z,27.13
2022-11-16T01:56:52.027Z,27.00
2022-11-16T02:00:00.483Z,26.60
2022-11-16T02:03:03.381Z,26.20
2022-11-16T02:06:06.186Z,27.27
2022-11-16T02:09:54.961Z,27.53
2022-11-16T02:13:11.727Z,25.87
2022-11-16T02:16:41.490Z,28.00
2022-11-16T02:19:53.282Z,27.25
2022-11-16T02:23:14.352Z,25.60
2022-11-16T02:26:32.859Z,26.87
2022-11-16T02:29:50.555Z,27.57
2022-11-16T02:32:58.189Z,26.85
2022-11-16T02:36:03.228Z,28.00
2022-11-16T02:39:09.403Z,27.92
2022-11-16T02:42:17.926Z,27.97
2022-11-16T02:45:24.042Z,26.03
2022-11-16T02:48:30.742Z,25.98
2022-11-16T02:51:35.396Z,26.27
2022-11-16T02:54:38.193Z,27.80
2022-11-16T02:58:00.010Z,25.80
2022-11-16T03:01:13.697Z,26.27
2022-11-16T03:04:28.028Z,24.60
2022-11-16T03:07:35.340Z,25.00
2022-11-16T03:10:58.834Z,24.17
2022-11-16T03:14:05.899Z,24.48
2022-11-16T03:17:12.554Z,25.98
2022-11-16T03:20:20.938Z,24.98
2022-11-16T03:23:23.862Z,24.23
2022-11-16T03:26:32.232Z,24.83
2022-11-16T03:29:56.221Z,23.33
2022-11-16T03:33:02.047Z,24.02
2022-11-16T03:36:10.034Z,24.10
2022-11-16T03:39:23.011Z,23.67
2022-11-16T03:42:27.011Z,24.37
2022-11-16T03:45:30.939Z,26.62
2022-11-16T03:48:39.588Z,25.73
2022-11-16T03:51:42.500Z,24.45
2022-11-16T03:54:45.396Z,25.77
2022-11-16T03:57:48.220Z,27.23
2022-11-16T04:00:51.090Z,25.25
2022-11-16T04:03:54.122Z,24.58
2022-11-16T04:07:15.659Z,22.98
2022-11-16T04:10:36.994Z,23.23
2022-11-16T04:13:58.142Z,23.53
2022-11-16T04:17:19.413Z,22.52
2022-11-16T04:20:40.555Z,23.12
2022-11-16T04:24:02.299Z,23.27
2022-11-16T04:27:27.550Z,23.45
2022-11-16T04:30:50.404Z,24.23
2022-11-16T04:34:12.726Z,23.65
2022-11-16T04:37:36.970Z,23.05
2022-11-16T04:40:39.830Z,24.58
2022-11-16T04:43:42.718Z,23.58
2022-11-16T04:47:05.081Z,22.97
2022-11-16T04:50:08.332Z,23.67
2022-11-16T04:53:11.741Z,23.20
2022-11-16T04:56:14.617Z,23.17
2022-11-16T04:59:18.283Z,22.62
2022-11-16T05:02:21.423Z,22.77
2022-11-16T05:05:24.303Z,22.95
2022-11-16T05:08:27.471Z,23.48
2022-11-16T05:11:30.426Z,22.87
2022-11-16T05:14:33.548Z,22.67
2022-11-16T05:17:36.680Z,23.63
2022-11-16T05:20:58.096Z,23.75
2022-11-16T05:24:19.245Z,22.85
2022-11-16T05:27:23.433Z,22.75
2022-11-16T05:30:26.401Z,23.30
2022-11-16T05:33:29.210Z,22.57
2022-11-16T05:36:32.402Z,21.70
2022-11-16T05:39:35.872Z,22.40
2022-11-16T05:42:38.769Z,21.77
2022-11-16T05:45:41.634Z,22.62
2022-11-16T05:48:44.685Z,22.60
2022-11-16T05:51:48.059Z,22.70
2022-11-16T05:54:50.995Z,22.20
2022-11-16T05:57:54.091Z,20.15
2022-11-16T06:00:58.373Z,20.62
2022-11-16T06:04:02.257Z,20.40
2022-11-16T06:07:05.095Z,20.58
2022-11-16T06:10:08.321Z,21.73
2022-11-16T06:13:11.316Z,20.17
2022-11-16T06:16:14.285Z,21.87
2022-11-16T06:19:17.133Z,20.63
2022-11-16T06:22:19.965Z,19.75
2022-11-16T06:25:23.260Z,20.05
2022-11-16T06:28:26.356Z,19.50
2022-11-16T06:31:29.997Z,20.17
2022-11-16T06:34:33.143Z,21.97
2022-11-16T06:37:36.100Z,19.90
2022-11-16T06:40:39.152Z,19.48
2022-11-16T06:43:42.239Z,18.62
2022-11-16T06:46:45.173Z,18.85
2022-11-16T06:49:48.142Z,18.20
2022-11-16T06:52:51.134Z,19.77
2022-11-16T06:55:54.058Z,18.58
2022-11-16T06:58:57.566Z,18.62
2022-11-16T07:02:00.515Z,19.00
2022-11-16T07:05:04.223Z,20.37
2022-11-16T07:08:07.339Z,18.92
2022-11-16T07:11:10.915Z,19.40
2022-11-16T07:14:13.909Z,19.33
2022-11-16T07:17:16.884Z,18.08
2022-11-16T07:20:20.026Z,17.43
2022-11-16T07:23:23.125Z,17.35
2022-11-16T07:26:26.130Z,17.80
2022-11-16T07:29:29.652Z,17.65
2022-11-16T07:32:32.510Z,17.70
2022-11-16T07:35:35.653Z,17.07
2022-11-16T07:38:38.924Z,17.05
2022-11-16T07:41:45.362Z,17.10
2022-11-16T07:44:48.237Z,17.20
2022-11-16T07:47:53.565Z,16.23
2022-11-16T07:51:02.803Z,16.30
2022-11-16T07:54:06.840Z,16.55
2022-11-16T07:57:09.915Z,16.10
2022-11-16T08:00:13.192Z,16.87
2022-11-16T08:03:19.298Z,15.20
2022-11-16T08:06:28.409Z,16.07
2022-11-16T08:09:31.306Z,16.23
2022-11-16T08:12:34.215Z,15.75
2022-11-16T08:15:37.098Z,16.27
2022-11-16T08:18:41.974Z,15.98
2022-11-16T08:21:46.195Z,16.40
2022-11-16T08:24:49.618Z,16.65
2022-11-16T08:27:52.387Z,15.57
2022-11-16T08:30:55.553Z,15.82
2022-11-16T08:34:00.657Z,15.63
2022-11-16T08:37:03.508Z,15.73
2022-11-16T08:40:07.153Z,14.93
2022-11-16T08:43:11.358Z,15.77
2022-11-16T08:46:14.500Z,16.92
2022-11-16T08:49:17.556Z,17.02
2022-11-16T08:52:20.528Z,16.83
2022-11-16T08:55:24.180Z,17.52
2022-11-16T08:58:27.059Z,16.45
2022-11-16T09:01:32.812Z,16.27
2022-11-16T09:04:37.306Z,16.62
2022-11-16T09:07:42.239Z,16.43
2022-11-16T09:10:45.276Z,16.02
2022-11-16T09:13:50.078Z,16.87
2022-11-16T09:16:53.008Z,15.48
2022-11-16T09:19:55.944Z,16.65
2022-11-16T09:22:58.863Z,16.40
2022-11-16T09:26:03.960Z,16.50
2022-11-16T09:29:06.887Z,17.50
2022-11-16T09:32:09.716Z,16.75
2022-11-16T09:35:12.736Z,16.30
2022-11-16T09:38:22.056Z,17.30
2022-11-16T09:41:51.507Z,20.65
2022-11-16T09:45:09.121Z,18.33
2022-11-16T09:48:13.806Z,16.10
2022-11-16T09:51:19.131Z,18.58
2022-11-16T09:54:28.169Z,15.80
2022-11-16T09:57:35.183Z,16.55
2022-11-16T10:00:38.760Z,17.95
2022-11-16T10:03:43.911Z,17.08
2022-11-16T10:07:00.118Z,16.75
2022-11-16T10:10:03.747Z,16.00
2022-11-16T10:13:07.329Z,16.83
2022-11-16T10:16:16.474Z,16.75
2022-11-16T10:19:40.644Z,17.60
2022-11-16T10:23:08.779Z,16.42
2022-11-16T10:26:14.864Z,14.87
2022-11-16T10:29:33.891Z,16.08
2022-11-16T10:32:56.307Z,16.95
2022-11-16T10:35:59.318Z,17.35
2022-11-16T10:39:02.904Z,18.65
2022-11-16T10:42:11.560Z,18.03
2022-11-16T10:45:21.035Z,18.73
2022-11-16T10:48:37.833Z,16.70
2022-11-16T10:51:40.736Z,16.33
2022-11-16T10:54:44.548Z,17.80
2022-11-16T10:58:05.680Z,18.30
2022-11-16T11:01:10.949Z,18.20
2022-11-16T11:04:20.092Z,16.87
2022-11-16T11:07:40.195Z,18.42
2022-11-16T11:10:43.356Z,18.15
2022-11-16T11:13:46.277Z,17.50
2022-11-16T11:16:53.887Z,17.35
2022-11-16T11:20:04.141Z,16.85
2022-11-16T11:23:13.256Z,15.95
2022-11-16T11:26:37.354Z,16.42
2022-11-16T11:29:41.966Z,16.17
2022-11-16T11:32:45.201Z,16.35
2022-11-16T11:35:58.275Z,16.45
2022-11-16T11:39:08.651Z,17.23
2022-11-16T11:42:14.698Z,16.67
2022-11-16T11:45:18.368Z,15.77
2022-11-16T11:48:43.513Z,15.68
2022-11-16T11:51:47.311Z,16.00
2022-11-16T11:54:51.173Z,16.73
2022-11-16T11:57:54.487Z,16.95
2022-11-16T12:01:35.672Z,17.33
2022-11-16T12:04:56.732Z,16.23
2022-11-16T12:08:42.527Z,16.52
2022-11-16T12:12:15.999Z,15.77
2022-11-16T12:15:30.622Z,17.52
2022-11-16T12:18:45.785Z,16.50
2022-11-16T12:22:03.762Z,16.70
2022-11-16T12:25:29.350Z,15.40
2022-11-16T12:28:54.009Z,15.40
2022-11-16T12:32:12.889Z,15.40
2022-11-16T12:35:38.801Z,15.93
2022-11-16T12:39:03.466Z,14.77
2022-11-16T12:42:40.756Z,14.25
2022-11-16T12:45:43.664Z,13.70
2022-11-16T12:49:01.395Z,15.20
2022-11-16T12:52:26.679Z,14.60
2022-11-16T12:55:54.865Z,14.25
2022-11-16T12:59:22.508Z,14.40
2022-11-16T13:02:37.554Z,14.60
2022-11-16T13:05:45.701Z,15.27
2022-11-16T13:08:50.651Z,14.70
2022-11-16T13:11:58.817Z,15.07
2022-11-16T13:15:03.636Z,14.45
2022-11-16T13:18:08.473Z,15.00
2022-11-16T13:21:29.241Z,14.80
2022-11-16T13:24:47.501Z,15.27
2022-11-16T13:27:58.184Z,14.27
2022-11-16T13:31:08.557Z,14.77
2022-11-16T13:34:24.647Z,15.13
2022-11-16T13:37:40.033Z,15.30
2022-11-16T13:40:42.983Z,14.27
2022-11-16T13:43:49.573Z,14.60
2022-11-16T13:47:20.461Z,14.80
2022-11-16T13:50:34.529Z,15.75
2022-11-16T13:57:26.789Z,15.30
2022-11-16T14:00:40.204Z,15.63
2022-11-16T14:03:44.725Z,16.83
2022-11-16T14:06:47.697Z,16.25
2022-11-16T14:09:50.801Z,17.92
2022-11-16T14:12:57.316Z,15.67
2022-11-16T14:16:15.626Z,15.63
2022-11-16T14:19:44.708Z,15.48
2022-11-16T14:23:00.891Z,15.63
2022-11-16T14:26:23.622Z,15.80
2022-11-16T14:29:36.911Z,16.93
2022-11-16T14:32:48.403Z,17.30
2022-11-16T14:35:53.943Z,17.50
2022-11-16T14:39:33.337Z,15.93
2022-11-16T14:43:16.109Z,15.88
2022-11-16T14:46:26.475Z,15.63
2022-11-16T14:49:33.598Z,16.92
2022-11-16T14:52:40.394Z,17.30
2022-11-16T14:55:45.308Z,19.67
2022-11-16T14:58:57.827Z,19.02
2022-11-16T15:02:18.678Z,16.80
2022-11-16T15:05:24.017Z,17.37
2022-11-16T15:08:37.540Z,16.48
2022-11-16T15:12:00.414Z,16.48
2022-11-16T15:15:09.110Z,16.25
2022-11-16T15:18:15.976Z,25.80
2022-11-16T15:21:23.287Z,24.87
2022-11-16T15:24:32.469Z,21.02
2022-11-16T15:27:38.392Z,17.62
2022-11-16T15:30:41.696Z,17.23
2022-11-16T15:33:46.119Z,15.40
2022-11-16T15:36:49.401Z,16.02
2022-11-16T15:39:52.627Z,15.93
2022-11-16T15:42:56.469Z,15.15
2022-11-16T15:46:00.354Z,15.95
2022-11-16T15:49:03.477Z,15.80
2022-11-16T15:52:06.655Z,16.35
2022-11-16T15:55:29.193Z,15.75
2022-11-16T15:58:32.904Z,14.77
2022-11-16T16:01:42.427Z,16.75
2022-11-16T16:04:45.405Z,16.53
2022-11-16T16:07:48.808Z,15.65
2022-11-16T16:11:25.546Z,15.20
2022-11-16T16:14:30.910Z,15.57
2022-11-16T16:17:34.226Z,16.42
2022-11-16T16:20:37.360Z,17.07
2022-11-16T16:23:46.956Z,15.82
2022-11-16T16:26:50.139Z,16.05
2022-11-16T16:29:55.630Z,16.25
2022-11-16T16:32:58.634Z,17.15
2022-11-16T16:36:02.207Z,18.60
2022-11-16T16:39:05.336Z,18.77
2022-11-16T16:42:12.091Z,17.85
2022-11-16T16:45:21.885Z,18.42
2022-11-16T16:48:24.892Z,22.70
2022-11-16T16:51:27.893Z,19.63
2022-11-16T16:54:30.871Z,58.55
2022-11-16T16:57:33.805Z,21.15
2022-11-16T17:00:36.813Z,19.27
2022-11-16T17:03:40.106Z,18.92
2022-11-16T17:06:46.444Z,35.60
2022-11-16T17:09:49.850Z,38.25
2022-11-16T17:12:57.699Z,21.23
2022-11-16T17:16:04.956Z,17.65
2022-11-16T17:19:08.015Z,18.05
2022-11-16T17:22:11.107Z,17.87
2022-11-16T17:25:15.263Z,18.17
2022-11-16T17:28:18.307Z,18.87
2022-11-16T17:31:21.735Z,19.58
2022-11-16T17:34:25.165Z,19.65
2022-11-16T17:37:29.037Z,19.93
2022-11-16T17:40:32.570Z,20.15
2022-11-16T17:43:36.556Z,19.80
2022-11-16T17:46:40.210Z,20.35
2022-11-16T17:49:43.960Z,18.98
2022-11-16T17:52:47.298Z,19.63
2022-11-16T17:55:50.864Z,18.98
2022-11-16T17:58:58.843Z,23.12
2022-11-16T18:02:02.274Z,21.08
2022-11-16T18:05:05.942Z,20.95
2022-11-16T18:08:09.134Z,20.57
2022-11-16T18:11:15.404Z,19.75
2022-11-16T18:14:18.710Z,20.73
2022-11-16T18:17:22.095Z,22.40
2022-11-16T18:20:25.562Z,20.90
2022-11-16T18:23:29.427Z,21.57
2022-11-16T18:26:33.007Z,25.75
2022-11-16T18:29:37.294Z,26.95
2022-11-16T18:32:40.909Z,23.40
2022-11-16T18:35:44.863Z,22.20
2022-11-16T18:38:48.430Z,21.03
2022-11-16T18:41:55.223Z,18.08
2022-11-16T18:44:58.741Z,17.67
2022-11-16T18:48:02.228Z,17.27
2022-11-16T18:51:06.020Z,16.23
2022-11-16T18:54:09.745Z,17.67
2022-11-16T18:57:13.199Z,16.92
2022-11-16T19:00:19.527Z,19.15
2022-11-16T19:03:23.217Z,23.00
2022-11-16T19:06:27.018Z,22.30
2022-11-16T19:09:30.455Z,21.53
2022-11-16T19:12:34.222Z,17.60
2022-11-16T19:15:37.610Z,17.10
2022-11-16T19:18:45.962Z,17.23
2022-11-16T19:21:54.359Z,18.00
2022-11-16T19:25:01.759Z,16.77
2022-11-16T19:28:13.066Z,16.70
2022-11-16T19:31:18.166Z,20.10
2022-11-16T19:34:21.929Z,20.98
2022-11-16T19:37:25.513Z,34.28
2022-11-16T19:40:29.182Z,32.23
2022-11-16T19:43:36.176Z,26.10
2022-11-16T19:46:39.770Z,40.58
2022-11-16T19:49:43.923Z,20.17
2022-11-16T19:52:47.514Z,18.50
2022-11-16T19:55:55.294Z,18.23
2022-11-16T19:58:59.230Z,19.40
2022-11-16T20:02:03.121Z,17.52
2022-11-16T20:05:07.245Z,20.42
2022-11-16T20:08:11.731Z,18.70
2022-11-16T20:11:21.027Z,17.77
2022-11-16T20:14:24.741Z,18.25
2022-11-16T20:17:28.240Z,18.80
2022-11-16T20:20:32.783Z,20.42
2022-11-16T20:23:37.896Z,18.95
2022-11-16T20:26:45.065Z,19.13
2022-11-16T20:29:48.548Z,19.92
2022-11-16T20:32:52.791Z,19.15
2022-11-16T20:36:07.722Z,18.27
2022-11-16T20:39:17.298Z,17.45
2022-11-16T20:42:20.777Z,18.07
2022-11-16T20:45:24.461Z,17.60
2022-11-16T20:48:28.895Z,19.42
2022-11-16T20:51:32.292Z,16.00
2022-11-16T20:54:35.564Z,17.20
2022-11-16T20:57:38.647Z,17.10
2022-11-16T21:00:42.478Z,16.30
2022-11-16T21:03:46.896Z,17.62
2022-11-16T21:06:50.371Z,16.87
2022-11-16T21:10:11.728Z,16.92
2022-11-16T21:13:38.016Z,15.87
2022-11-16T21:16:41.595Z,17.52
2022-11-16T21:20:05.471Z,16.95
2022-11-16T21:23:07.678Z,17.15
2022-11-16T21:26:12.523Z,16.17
2022-11-16T21:29:15.787Z,14.93
2022-11-16T21:32:18.766Z,16.48
2022-11-16T21:35:21.759Z,15.77
2022-11-16T21:38:25.869Z,16.00
2022-11-16T21:41:30.297Z,16.48
2022-11-16T21:44:42.806Z,14.20
2022-11-16T21:47:45.954Z,14.77
2022-11-16T21:50:50.110Z,16.55
2022-11-16T21:53:54.269Z,16.02
2022-11-16T21:56:57.134Z,15.13
2022-11-16T22:00:01.547Z,15.03
2022-11-16T22:03:04.626Z,14.80
2022-11-16T22:06:27.159Z,14.63
2022-11-16T22:09:30.005Z,14.25
2022-11-16T22:12:33.724Z,15.63
2022-11-16T22:15:36.633Z,13.07
2022-11-16T22:18:39.992Z,12.32
2022-11-16T22:21:42.985Z,12.27
2022-11-16T22:24:45.856Z,11.35
2022-11-16T22:28:13.771Z,12.93
2022-11-16T22:31:14.811Z,11.30
2022-11-16T22:34:17.724Z,11.93
2022-11-16T22:37:20.814Z,12.27
2022-11-16T22:40:23.843Z,11.98
2022-11-16T22:43:28.498Z,12.02
2022-11-16T22:46:31.481Z,12.73
2022-11-16T22:49:34.303Z,13.43
2022-11-16T22:52:37.179Z,11.98
2022-11-16T22:55:40.036Z,11.82
2022-11-16T22:58:42.944Z,13.45
2022-11-16T23:01:45.778Z,11.63
2022-11-16T23:04:48.674Z,12.93
2022-11-16T23:07:51.561Z,13.48
2022-11-16T23:11:23.706Z,13.93
2022-11-16T23:14:44.942Z,13.57
2022-11-16T23:17:47.837Z,13.40
2022-11-16T23:21:09.263Z,12.93
2022-11-16T23:24:31.724Z,12.70
2022-11-16T23:27:37.519Z,13.73
2022-11-16T23:30:41.427Z,13.27
2022-11-16T23:33:44.296Z,13.07
2022-11-16T23:36:47.013Z,13.45
2022-11-16T23:39:50.162Z,13.20
2022-11-16T23:43:12.104Z,13.68
2022-11-16T23:46:14.962Z,12.98
2022-11-16T23:49:17.714Z,12.77
2022-11-16T23:52:20.611Z,12.27
2022-11-16T23:55:23.529Z,13.43
2022-11-16T23:58:26.356Z,12.73
